Terminal Aerodrome Forecast
Issued by NWS

Home | Current Version | Previous Version | Text Only | Print | Product List | Glossary On
Versions: 1 2 3 4 5 6 7 8 9 10 11 12
000
FTUS45 KABQ 101129
TAFFMN
TAF
KFMN 101129Z 1012/1112 09006KT P6SM BKN200
     FM110200 06006KT P6SM SCT050 BKN100
     FM111000 34009KT P6SM VCSH SCT015 BKN050=

USA.gov is the U.S. government's official web portal to all federal, state and local government web resources and services.